Latest Weather Observations for Cape Borda

IDS60801

Issued at 12:02 pm CDT Monday 2 February 2015 (issued every 30 minutes, with the page automatically refreshed every 10 minutes)

About weather observations | Map of weather stations | Latest weather observations for SA | Other Formats
Station Details ID: 022823 Name: CAPE BORDA Lat: -35.75 Lon: 136.60 Height: 158.0 m
Data from the previous 72 hours. | See also: Recent months at Cape Borda
Date/Time
CDT
Temp
°C
App
Temp
°C
Dew
Point
Rel
Hum
%
Delta-T
°C
Wind Press
QNH
hPa
Press
MSL
hPa
Rain
since 9 am
mm
Dir
 
Spd
km/h
Gust
km/h
Spd
kts
Gust
kts
02/12:00pm 17.0 11.4 8.9 59 4.2 SSE 28 44 15 24 1025.0 1024.7 0.0
02/11:30am 16.9 11.3 8.8 59 4.2 SSE 28 39 15 21 1025.0 - 0.0
02/11:00am 17.4 12.1 8.5 56 4.6 SSE 26 35 14 19 1024.8 - 0.0
02/10:30am 16.9 11.6 8.3 57 4.4 SSE 26 41 14 22 1024.6 - 0.0
02/10:00am 15.8 10.5 8.5 62 3.7 SSE 26 37 14 20 1024.4 - 0.0
02/09:30am 15.4 10.5 8.5 63 3.5 SSE 24 35 13 19 1024.1 - 0.0
02/09:00am 14.8 10.9 9.4 70 2.8 SSE 20 32 11 17 1024.1 1023.8 0.0
02/08:30am 14.4 10.9 8.9 69 2.8 SSE 17 22 9 12 1023.7 - 0.0
02/08:00am 13.5 10.4 10.2 80 1.7 SSE 17 24 9 13 1023.6 - 0.0
02/07:30am 13.1 10.7 10.2 82 1.5 S 13 22 7 12 1023.3 - 0.0
02/07:00am 12.7 9.9 10.0 84 1.4 SSE 15 28 8 15 1023.0 - 0.0
02/06:30am 12.3 9.3 9.1 81 1.6 SSE 15 26 8 14 1022.5 - 0.0
02/06:00am 13.2 10.6 9.5 78 1.9 SSE 13 24 7 13 1022.1 1021.8 0.0
02/05:30am 13.7 9.9 9.2 74 2.3 SSE 19 32 10 17 1022.0 - 0.0
02/05:00am 13.7 10.3 9.0 73 2.4 SE 17 24 9 13 1021.7 - 0.0
02/04:30am 13.7 9.4 7.9 68 2.9 SSE 20 26 11 14 1021.5 - 0.0
02/04:00am 13.7 9.5 8.3 70 2.7 SSE 20 28 11 15 1021.7 - 0.0
02/03:30am 13.7 10.3 9.0 73 2.4 SSE 17 28 9 15 1021.7 - 0.0
02/03:00am 13.4 9.8 9.7 78 1.9 SSE 19 28 10 15 1021.7 1021.4 0.0
02/02:30am 13.3 9.7 10.0 80 1.7 SSE 19 28 10 15 1021.8 - 0.0
02/02:00am 12.9 9.2 10.2 84 1.4 SSE 20 33 11 18 1021.9 - 0.0
02/01:30am 13.3 8.7 9.6 78 1.9 SSE 24 32 13 17 1021.9 - 0.0
02/01:00am 13.3 9.1 8.3 72 2.5 SSE 20 30 11 16 1022.1 - 0.0
02/12:30am 13.9 10.9 9.2 73 2.4 SSE 15 20 8 11 1022.2 - 0.0
02/12:00am 14.0 9.7 9.3 73 2.4 S 22 39 12 21 1022.1 1021.8 0.0
 
Date/Time
CDT
Temp
°C
App
Temp
°C
Dew
Point
Rel
Hum
%
Delta-T
°C
Wind Press
QNH
hPa
Press
MSL
hPa
Rain
since 9 am
mm
Dir
 
Spd
km/h
Gust
km/h
Spd
kts
Gust
kts
01/11:30pm 14.0 8.8 8.9 71 2.6 S 26 39 14 21 1022.2 - 0.0
01/11:00pm 13.5 9.6 8.7 73 2.4 S 19 28 10 15 1022.5 - 0.0
01/10:30pm 13.8 10.3 8.7 71 2.6 S 17 30 9 16 1022.4 - 0.0
01/10:00pm 13.8 9.9 9.5 75 2.2 S 20 32 11 17 1022.0 - 0.0
01/09:30pm 13.6 9.9 9.3 75 2.2 S 19 26 10 14 1021.6 - 0.0
01/09:00pm 14.1 10.0 10.1 77 2.1 S 22 30 12 16 1021.6 1021.2 0.0
01/08:30pm 13.8 9.0 8.7 71 2.6 S 24 35 13 19 1021.4 - 0.0
01/08:00pm 14.2 9.7 10.2 77 2.1 SSE 24 37 13 20 1021.2 - 0.0
01/07:30pm 16.2 11.4 8.8 61 3.8 SSE 24 33 13 18 1021.0 - 0.0
01/07:00pm 17.1 11.2 9.0 59 4.2 S 30 41 16 22 1020.6 - 0.0
01/06:30pm 17.0 11.1 8.9 59 4.2 S 30 43 16 23 1020.6 - 0.0
01/06:00pm 15.9 9.7 10.0 68 3.1 S 33 44 18 24 1020.6 1020.3 0.0
01/05:33pm 17.8 11.8 8.8 55 4.7 S 30 48 16 26 1020.5 - 0.0
01/05:30pm 17.3 11.4 9.0 58 4.3 S 30 43 16 23 1020.4 - 0.0
01/05:09pm 16.5 10.0 9.0 61 3.9 S 33 52 18 28 1020.4 - 0.0
01/05:00pm 15.9 9.4 9.1 64 3.5 S 33 50 18 27 1020.4 - 0.0
01/04:56pm 16.9 11.0 9.0 59 4.1 S 30 50 16 27 1020.2 - 0.0
01/04:30pm 16.5 10.1 8.7 60 4.0 S 32 43 17 23 1020.6 - 0.0
01/04:00pm 17.8 11.4 7.1 49 5.4 S 30 50 16 27 1020.3 - 0.0
01/03:42pm 18.1 11.7 7.0 48 5.6 S 30 48 16 26 1020.2 - 0.0
01/03:30pm 18.3 11.3 6.7 46 5.8 SSW 33 43 18 23 1020.0 - 0.0
01/03:00pm 18.3 11.9 7.0 47 5.7 S 30 43 16 23 1020.1 1019.8 0.0
01/02:48pm 18.4 12.5 7.6 49 5.5 S 28 46 15 25 1020.1 - 0.0
01/02:30pm 17.2 10.8 8.7 57 4.4 S 32 41 17 22 1020.2 - 0.0
01/02:00pm 17.1 11.3 9.3 60 4.1 S 30 44 16 24 1020.3 - 0.0
01/01:30pm 18.4 12.3 8.4 52 5.2 S 30 43 16 23 1020.3 - 0.0
01/01:00pm 17.4 11.1 7.5 52 5.0 S 30 39 16 21 1020.4 - 0.0
01/12:30pm 17.7 11.7 6.9 49 5.4 S 28 39 15 21 1020.6 - 0.0
01/12:00pm 17.9 11.2 7.2 49 5.4 S 32 39 17 21 1020.9 1020.5 0.0
01/11:30am 16.8 10.2 7.9 55 4.5 S 32 43 17 23 1020.8 - 0.0
01/11:17am 17.4 11.4 7.0 50 5.2 S 28 46 15 25 1020.5 - 0.0
01/11:00am 17.3 10.4 6.6 49 5.3 S 32 43 17 23 1020.4 - 0.0
01/10:48am 16.2 10.2 7.2 55 4.5 SSE 28 46 15 25 1020.5 - 0.0
01/10:30am 15.8 9.3 8.3 61 3.8 S 32 46 17 25 1020.5 - 0.0
01/10:00am 15.8 8.8 6.9 55 4.4 S 33 46 18 25 1020.3 - 0.0
01/09:30am 15.0 9.4 8.7 66 3.2 S 28 39 15 21 1020.0 - 0.0
01/09:00am 14.9 10.4 8.6 66 3.2 S 22 33 12 18 1019.9 1019.6 0.0
01/08:30am 14.3 9.7 9.5 73 2.5 S 24 39 13 21 1019.6 - 0.0
01/08:00am 14.0 9.6 8.9 71 2.6 S 22 35 12 19 1019.0 - 0.0
01/07:30am 13.8 9.8 9.1 73 2.4 S 20 33 11 18 1018.6 - 0.0
01/07:00am 13.7 8.2 9.0 73 2.4 S 28 39 15 21 1018.5 - 0.0
01/06:30am 13.8 9.1 9.3 74 2.3 S 24 33 13 18 1018.1 - 0.0
01/06:00am 13.9 10.2 10.1 78 2.0 S 20 28 11 15 1018.0 1017.7 0.0
01/05:30am 13.8 10.3 10.8 82 1.6 S 20 30 11 16 1018.0 - 0.0
01/05:00am 13.7 10.3 11.1 84 1.4 S 20 32 11 17 1017.9 - 0.0
01/04:30am 13.6 9.8 11.2 85 1.3 S 22 33 12 18 1017.9 - 0.0
01/04:00am 13.2 9.9 11.5 89 0.9 S 20 32 11 17 1018.0 - 0.0
01/03:30am 13.4 9.8 11.7 89 0.9 S 22 33 12 18 1018.1 - 0.0
01/03:00am 13.6 10.5 11.5 87 1.1 S 19 28 10 15 1018.4 1018.1 0.0
01/02:30am 13.4 10.5 10.9 85 1.3 S 17 22 9 12 1018.5 - 0.0
01/02:00am 13.5 9.4 11.4 87 1.1 SSE 24 33 13 18 1018.6 - 0.0
01/01:30am 13.3 10.1 11.8 91 0.8 SSE 20 35 11 19 1018.6 - 0.0
01/01:00am 13.3 10.2 12.2 93 0.6 S 20 30 11 16 1018.9 - 0.0
01/12:30am 14.0 10.1 10.8 81 1.7 S 22 37 12 20 1019.1 - 0.0
01/12:00am 14.1 10.0 11.5 84 1.4 S 24 33 13 18 1019.1 1018.8 0.0
 
Date/Time
CDT
Temp
°C
App
Temp
°C
Dew
Point
Rel
Hum
%
Delta-T
°C
Wind Press
QNH
hPa
Press
MSL
hPa
Rain
since 9 am
mm
Dir
 
Spd
km/h
Gust
km/h
Spd
kts
Gust
kts
31/11:30pm 14.0 10.1 12.0 88 1.1 SSE 24 35 13 19 1019.1 - 0.0
31/11:00pm 15.1 10.6 9.9 71 2.7 SSE 24 32 13 17 1019.1 - 0.0
31/10:30pm 14.8 10.3 10.2 74 2.4 SSE 24 35 13 19 1019.0 - 0.0
31/10:00pm 15.1 11.3 9.7 70 2.8 SSE 20 30 11 16 1018.8 - 0.0
31/09:30pm 15.0 10.0 9.4 69 2.9 SSE 26 37 14 20 1018.5 - 0.0
31/09:00pm 14.8 9.8 10.9 77 2.1 SSE 28 41 15 22 1018.2 1017.9 0.0
31/08:30pm 15.4 9.1 8.8 65 3.4 SSE 32 43 17 23 1017.8 - 0.0
31/08:00pm 15.8 10.1 9.7 67 3.2 SSE 30 43 16 23 1017.7 - 0.0
31/07:30pm 16.4 10.3 9.7 64 3.5 SSE 32 46 17 25 1017.5 - 0.0
31/07:04pm 17.4 11.6 8.0 54 4.8 SSE 28 48 15 26 1017.4 - 0.0
31/07:00pm 17.2 11.5 8.5 56 4.5 SSE 28 41 15 22 1017.4 - 0.0
31/06:44pm 17.6 12.1 9.2 58 4.4 SSE 28 46 15 25 1017.3 - 0.0
31/06:30pm 16.6 10.5 9.8 64 3.6 SSE 32 43 17 23 1017.3 - 0.0
31/06:00pm 18.2 12.3 9.1 55 4.8 SSE 30 37 16 20 1017.4 1017.1 0.0
31/05:30pm 17.7 12.4 9.8 60 4.2 S 28 41 15 22 1017.7 - 0.0
31/05:00pm 17.5 12.7 10.2 62 3.9 S 26 39 14 21 1017.8 - 0.0
31/04:30pm 17.5 12.8 11.9 69 3.1 S 28 43 15 23 1017.7 - 0.0
31/04:00pm 18.5 13.3 9.0 54 5.0 SSE 26 41 14 22 1017.8 - 0.0
31/03:30pm 18.6 13.3 8.6 52 5.2 SSE 26 39 14 21 1017.8 - 0.0
31/03:00pm 18.9 14.0 8.3 50 5.5 SSE 24 37 13 20 1017.9 1017.6 0.0
31/02:30pm 18.9 13.6 8.6 51 5.4 SE 26 39 14 21 1017.7 - 0.0
31/02:00pm 19.0 14.2 8.7 51 5.4 SSE 24 39 13 21 1017.7 - 0.0
31/01:30pm 18.3 13.0 9.9 58 4.5 SSE 28 44 15 24 1017.7 - 0.0
31/01:00pm 18.7 12.5 9.5 55 4.9 SSE 32 43 17 23 1017.7 - 0.0
31/12:31pm 20.6 14.3 7.2 42 6.9 ESE 30 48 16 26 1017.6 - 0.0
31/12:30pm 20.3 13.6 7.3 43 6.7 ESE 32 48 17 26 1017.6 - 0.0
31/12:00pm 19.8 13.7 6.5 42 6.7 SE 28 41 15 22 1017.7 1017.4 0.0
31/11:30am 19.2 13.2 7.0 45 6.2 SE 28 41 15 22 1017.7 - 0.0
31/11:00am 18.2 12.5 6.6 46 5.8 SE 26 37 14 20 1018.1 - 0.0
31/10:30am 17.1 11.7 7.9 54 4.7 SE 26 35 14 19 1018.2 - 0.0
31/10:00am 17.7 13.7 8.9 56 4.6 SE 20 32 11 17 1018.2 - 0.0
31/09:30am 16.5 12.0 8.7 60 4.0 SE 22 35 12 19 1018.2 - 0.0
31/09:00am 16.6 12.7 9.3 62 3.8 SE 20 32 11 17 1018.0 1017.7 0.0
31/08:30am 15.4 12.0 10.7 73 2.5 SE 19 28 10 15 1018.1 - 0.0
31/08:00am 15.0 11.4 10.7 75 2.3 SSE 20 30 11 16 1017.7 - 0.0
31/07:30am 14.3 11.4 11.1 81 1.7 SE 17 28 9 15 1017.4 - 0.0
31/07:00am 13.4 11.0 10.1 80 1.7 SSE 13 17 7 9 1017.0 - 0.0
31/06:30am 13.3 11.0 10.4 82 1.5 SSE 13 19 7 10 1016.7 - 0.0
31/06:00am 13.3 11.0 10.6 84 1.4 SSE 13 17 7 9 1016.6 1016.3 0.0
31/05:30am 13.7 11.4 10.5 81 1.7 SSE 13 19 7 10 1016.3 - 0.0
31/05:00am 13.4 11.4 10.3 81 1.6 SSE 11 17 6 9 1016.4 - 0.0
31/04:30am 13.9 11.2 10.5 80 1.8 SSE 15 20 8 11 1016.3 - 0.0
31/04:00am 14.0 11.7 10.4 79 1.9 SE 13 19 7 10 1016.3 - 0.0
31/03:30am 13.8 11.6 10.8 82 1.6 SSE 13 19 7 10 1016.1 - 0.0
31/03:00am 13.5 10.6 9.8 78 1.9 SE 15 26 8 14 1015.7 1015.3 0.0
31/02:30am 13.9 9.1 8.8 71 2.6 SE 24 33 13 18 1015.5 - 0.0
31/02:00am 13.8 9.7 8.7 71 2.6 SE 20 28 11 15 1016.0 - 0.0
31/01:30am 13.9 10.0 8.8 71 2.6 SE 19 24 10 13 1016.6 - 0.0
31/01:00am 13.9 9.7 8.1 68 2.9 SE 20 28 11 15 1016.8 - 0.0
31/12:30am 14.2 9.6 8.0 66 3.1 SE 22 35 12 19 1016.8 - 0.0
31/12:00am 13.8 10.2 8.2 69 2.8 SSE 17 30 9 16 1016.8 1016.5 0.0
 
Date/Time
CDT
Temp
°C
App
Temp
°C
Dew
Point
Rel
Hum
%
Delta-T
°C
Wind Press
QNH
hPa
Press
MSL
hPa
Rain
since 9 am
mm
Dir
 
Spd
km/h
Gust
km/h
Spd
kts
Gust
kts
30/11:30pm 13.6 9.6 8.2 70 2.7 SSE 19 32 10 17 1016.9 - 0.0
30/11:00pm 13.8 9.6 8.2 69 2.8 SSE 20 30 11 16 1017.1 - 0.0
30/10:30pm 13.5 9.9 8.3 71 2.6 SSE 17 22 9 12 1017.3 - 0.0
30/10:00pm 14.0 9.8 8.2 68 2.9 SSE 20 30 11 16 1017.2 - 0.0
30/09:30pm 14.3 10.2 8.6 68 2.9 SSE 20 32 11 17 1017.0 - 0.0
30/09:00pm 14.7 10.2 8.4 66 3.2 SE 22 35 12 19 1016.9 1016.6 0.0
30/08:30pm 15.2 9.7 9.0 66 3.2 SSE 28 43 15 23 1016.4 - 0.0
30/08:17pm 15.4 9.5 9.0 65 3.3 SSE 30 48 16 26 1016.3 - 0.0
30/08:00pm 16.0 9.5 8.8 62 3.7 SSE 33 46 18 25 1016.3 - 0.0
30/07:30pm 17.1 11.6 9.0 59 4.2 SSE 28 41 15 22 1016.2 - 0.0
30/07:00pm 18.0 11.6 8.6 54 4.9 SSE 32 46 17 25 1015.9 - 0.0
30/06:30pm 19.2 13.3 9.0 51 5.4 SSE 30 44 16 24 1015.9 - 0.0
30/06:00pm 19.9 13.9 8.7 48 5.9 SSE 30 48 16 26 1015.8 1015.4 0.0
30/05:52pm 20.3 14.8 9.0 48 6.0 SSE 28 48 15 26 1015.8 - 0.0
30/05:30pm 20.6 14.9 8.2 45 6.5 SE 28 44 15 24 1015.9 - 0.0
30/05:00pm 21.4 16.1 8.3 43 6.9 SE 26 44 14 24 1016.0 - 0.0
30/04:30pm 22.2 17.6 8.2 40 7.4 SE 22 35 12 19 1016.1 - 0.0
30/04:00pm 22.1 17.0 7.8 39 7.5 SSE 24 37 13 20 1016.2 - 0.0
30/03:30pm 22.8 18.3 7.0 36 8.2 SE 20 35 11 19 1016.4 - 0.0
30/03:00pm 22.3 17.4 7.1 37 7.9 SE 22 30 12 16 1016.7 1016.4 0.0
30/02:30pm 22.8 17.4 6.5 35 8.4 S 24 35 13 19 1016.8 - 0.0
30/02:00pm 22.5 17.8 7.9 39 7.7 SE 22 32 12 17 1017.2 - 0.0
30/01:30pm 22.9 18.8 8.7 40 7.6 ESE 20 32 11 17 1017.3 - 0.0
30/01:00pm 22.3 18.3 8.9 42 7.2 SE 20 32 11 17 1017.4 - 0.0
30/12:30pm 22.5 18.6 9.4 43 7.1 SE 20 28 11 15 1017.5 - 0.0

Other Formats:

Comma delimited format used in spreadsheet applications
http://www.bom.gov.au/fwo/IDS60801/IDS60801.95805.axf

JavaScript Object Notation format (JSON) in row-major order
http://www.bom.gov.au/fwo/IDS60801/IDS60801.95805.json